Fairhope, Ohio
Current Conditions -  °F | °C
As of 10:51 PM on Monday 22 Dec 2014 (Local Time) from KCAK Reporting Station
Overcast Overcast  
Wind Chill: 32°   Ceiling: 11000
Heat Index: 39°   Visibility: 7mi
Dew Point: 30°   Wind: 12mph
Humidity: 70%   Direction: 110°ESE
Pressure: 29.89"   Gusts: NA
Location:  40.8665°N, 81.2396°W
Report Text: KCAK 230351Z 11010KT 7SM OVC110 04/M01 A2989 RMK AO2 SLP131 T00391011
Loading
Personal Weather Stations






























Interactive Weather Map New forecast layout! Learn more

10-Day Weather Forecast

Advertisements
Track Severe Weather on mobile